sensor_id;sensor_type;location;lat;lon;timestamp;temperature;humidity
15690;DHT22;7945;48.816;11.506;2022-11-09T00:00:06;9.40;99.90
15690;DHT22;7945;48.816;11.506;2022-11-09T00:02:34;9.40;99.90
15690;DHT22;7945;48.816;11.506;2022-11-09T00:05:01;9.30;99.90
15690;DHT22;7945;48.816;11.506;2022-11-09T00:07:29;9.30;99.90
15690;DHT22;7945;48.816;11.506;2022-11-09T00:09:56;9.20;99.90
15690;DHT22;7945;48.816;11.506;2022-11-09T00:12:22;9.20;99.90
15690;DHT22;7945;48.816;11.506;2022-11-09T00:14:49;9.20;99.90
15690;DHT22;7945;48.816;11.506;2022-11-09T00:17:16;9.20;99.90
15690;DHT22;7945;48.816;11.506;2022-11-09T00:19:44;9.20;99.90
15690;DHT22;7945;48.816;11.506;2022-11-09T00:22:11;9.10;99.90
15690;DHT22;7945;48.816;11.506;2022-11-09T00:24:38;9.10;99.90
15690;DHT22;7945;48.816;11.506;2022-11-09T00:27:04;9.20;99.90
15690;DHT22;7945;48.816;11.506;2022-11-09T00:29:31;9.20;99.90
15690;DHT22;7945;48.816;11.506;2022-11-09T00:31:58;9.20;99.90
15690;DHT22;7945;48.816;11.506;2022-11-09T00:34:25;9.20;99.90
15690;DHT22;7945;48.816;11.506;2022-11-09T00:36:53;9.20;99.90
15690;DHT22;7945;48.816;11.506;2022-11-09T00:39:19;9.10;99.90
15690;DHT22;7945;48.816;11.506;2022-11-09T00:41:46;9.10;99.90
15690;DHT22;7945;48.816;11.506;2022-11-09T00:44:13;9.10;99.90
15690;DHT22;7945;48.816;11.506;2022-11-09T00:46:40;9.20;99.90
15690;DHT22;7945;48.816;11.506;2022-11-09T00:49:06;9.20;99.90
15690;DHT22;7945;48.816;11.506;2022-11-09T00:51:33;9.20;99.90
15690;DHT22;7945;48.816;11.506;2022-11-09T00:54:01;9.20;99.90
15690;DHT22;7945;48.816;11.506;2022-11-09T00:56:28;9.20;99.90
15690;DHT22;7945;48.816;11.506;2022-11-09T00:58:55;9.20;99.90
15690;DHT22;7945;48.816;11.506;2022-11-09T01:01:22;9.20;99.90
15690;DHT22;7945;48.816;11.506;2022-11-09T01:03:48;9.20;99.90
15690;DHT22;7945;48.816;11.506;2022-11-09T01:06:17;9.20;99.90
15690;DHT22;7945;48.816;11.506;2022-11-09T01:08:45;9.20;99.90
15690;DHT22;7945;48.816;11.506;2022-11-09T01:11:14;9.20;99.90
15690;DHT22;7945;48.816;11.506;2022-11-09T01:13:41;9.10;99.90
15690;DHT22;7945;48.816;11.506;2022-11-09T01:16:10;9.10;99.90
15690;DHT22;7945;48.816;11.506;2022-11-09T01:18:37;9.10;99.90
15690;DHT22;7945;48.816;11.506;2022-11-09T01:21:06;9.20;99.90
15690;DHT22;7945;48.816;11.506;2022-11-09T01:23:33;9.20;99.90
15690;DHT22;7945;48.816;11.506;2022-11-09T01:26:01;9.20;99.90
15690;DHT22;7945;48.816;11.506;2022-11-09T01:28:30;9.30;99.90
15690;DHT22;7945;48.816;11.506;2022-11-09T01:31:00;9.30;99.90
15690;DHT22;7945;48.816;11.506;2022-11-09T01:33:27;9.30;99.90
15690;DHT22;7945;48.816;11.506;2022-11-09T01:36:00;9.30;99.90
15690;DHT22;7945;48.816;11.506;2022-11-09T01:38:28;9.30;99.90
15690;DHT22;7945;48.816;11.506;2022-11-09T01:40:54;9.30;99.90
15690;DHT22;7945;48.816;11.506;2022-11-09T01:43:22;9.30;99.90
15690;DHT22;7945;48.816;11.506;2022-11-09T01:45:53;9.30;99.90
15690;DHT22;7945;48.816;11.506;2022-11-09T01:48:30;9.30;99.90
15690;DHT22;7945;48.816;11.506;2022-11-09T01:51:03;9.30;99.90
15690;DHT22;7945;48.816;11.506;2022-11-09T01:53:34;10.00;99.90
15690;DHT22;7945;48.816;11.506;2022-11-09T01:56:06;9.30;99.90
15690;DHT22;7945;48.816;11.506;2022-11-09T01:58:37;9.30;99.90
15690;DHT22;7945;48.816;11.506;2022-11-09T02:01:06;9.30;99.90
15690;DHT22;7945;48.816;11.506;2022-11-09T02:03:38;9.30;99.90
15690;DHT22;7945;48.816;11.506;2022-11-09T02:06:08;9.40;99.90
15690;DHT22;7945;48.816;11.506;2022-11-09T02:08:37;9.30;99.90
15690;DHT22;7945;48.816;11.506;2022-11-09T02:11:07;9.40;99.90
15690;DHT22;7945;48.816;11.506;2022-11-09T02:13:35;9.30;99.90
15690;DHT22;7945;48.816;11.506;2022-11-09T02:16:03;9.30;99.90
15690;DHT22;7945;48.816;11.506;2022-11-09T02:18:33;9.30;99.90
15690;DHT22;7945;48.816;11.506;2022-11-09T02:21:01;9.20;99.90
15690;DHT22;7945;48.816;11.506;2022-11-09T02:23:28;9.20;99.90
15690;DHT22;7945;48.816;11.506;2022-11-09T02:25:57;9.10;99.90
15690;DHT22;7945;48.816;11.506;2022-11-09T02:28:25;9.10;99.90
15690;DHT22;7945;48.816;11.506;2022-11-09T02:30:55;9.00;99.90
15690;DHT22;7945;48.816;11.506;2022-11-09T02:33:22;9.00;99.90
15690;DHT22;7945;48.816;11.506;2022-11-09T02:35:49;9.00;99.90
15690;DHT22;7945;48.816;11.506;2022-11-09T02:38:17;9.00;99.90
15690;DHT22;7945;48.816;11.506;2022-11-09T02:40:47;9.00;99.90
15690;DHT22;7945;48.816;11.506;2022-11-09T02:43:16;9.00;99.90
15690;DHT22;7945;48.816;11.506;2022-11-09T02:45:43;9.00;99.90
15690;DHT22;7945;48.816;11.506;2022-11-09T02:48:10;9.00;99.90
15690;DHT22;7945;48.816;11.506;2022-11-09T02:50:37;8.90;99.90
15690;DHT22;7945;48.816;11.506;2022-11-09T02:53:03;9.00;99.90
15690;DHT22;7945;48.816;11.506;2022-11-09T02:55:32;8.90;99.90
15690;DHT22;7945;48.816;11.506;2022-11-09T02:57:58;9.50;99.90
15690;DHT22;7945;48.816;11.506;2022-11-09T03:00:26;8.90;99.90
15690;DHT22;7945;48.816;11.506;2022-11-09T03:02:53;8.90;99.90
15690;DHT22;7945;48.816;11.506;2022-11-09T03:05:20;8.80;99.90
15690;DHT22;7945;48.816;11.506;2022-11-09T03:07:46;8.80;99.90
15690;DHT22;7945;48.816;11.506;2022-11-09T03:10:13;8.80;99.90
15690;DHT22;7945;48.816;11.506;2022-11-09T03:12:41;8.80;99.90
15690;DHT22;7945;48.816;11.506;2022-11-09T03:15:09;8.80;99.90
15690;DHT22;7945;48.816;11.506;2022-11-09T03:17:36;8.80;99.90
15690;DHT22;7945;48.816;11.506;2022-11-09T03:20:03;8.80;99.90
15690;DHT22;7945;48.816;11.506;2022-11-09T03:22:30;8.80;99.90
15690;DHT22;7945;48.816;11.506;2022-11-09T03:24:57;8.70;99.90
15690;DHT22;7945;48.816;11.506;2022-11-09T03:27:23;8.80;99.90
15690;DHT22;7945;48.816;11.506;2022-11-09T03:29:51;8.70;99.90
15690;DHT22;7945;48.816;11.506;2022-11-09T03:32:18;8.70;99.90
15690;DHT22;7945;48.816;11.506;2022-11-09T03:34:45;8.70;99.90
15690;DHT22;7945;48.816;11.506;2022-11-09T03:37:13;8.70;99.90
15690;DHT22;7945;48.816;11.506;2022-11-09T03:39:40;8.70;99.90
15690;DHT22;7945;48.816;11.506;2022-11-09T03:42:07;8.60;99.90
15690;DHT22;7945;48.816;11.506;2022-11-09T03:44:34;8.60;99.90
15690;DHT22;7945;48.816;11.506;2022-11-09T03:47:02;8.70;99.90
15690;DHT22;7945;48.816;11.506;2022-11-09T03:49:29;10.60;99.90
15690;DHT22;7945;48.816;11.506;2022-11-09T03:51:55;8.70;99.90
15690;DHT22;7945;48.816;11.506;2022-11-09T03:54:22;8.70;99.90
15690;DHT22;7945;48.816;11.506;2022-11-09T03:56:49;8.60;99.90
15690;DHT22;7945;48.816;11.506;2022-11-09T03:59:16;8.60;99.90
15690;DHT22;7945;48.816;11.506;2022-11-09T04:01:43;8.60;99.90
15690;DHT22;7945;48.816;11.506;2022-11-09T04:04:12;8.60;99.90
15690;DHT22;7945;48.816;11.506;2022-11-09T04:06:38;8.50;99.90
15690;DHT22;7945;48.816;11.506;2022-11-09T04:09:05;8.50;99.90
15690;DHT22;7945;48.816;11.506;2022-11-09T04:11:32;8.40;99.90
15690;DHT22;7945;48.816;11.506;2022-11-09T04:13:59;8.40;99.90
15690;DHT22;7945;48.816;11.506;2022-11-09T04:16:25;8.40;99.90
15690;DHT22;7945;48.816;11.506;2022-11-09T04:18:52;8.30;99.90
15690;DHT22;7945;48.816;11.506;2022-11-09T04:21:20;8.30;99.90
15690;DHT22;7945;48.816;11.506;2022-11-09T04:23:47;8.30;99.90
15690;DHT22;7945;48.816;11.506;2022-11-09T04:26:14;8.30;99.90
15690;DHT22;7945;48.816;11.506;2022-11-09T04:28:41;8.30;99.90
15690;DHT22;7945;48.816;11.506;2022-11-09T04:31:08;8.30;99.90
15690;DHT22;7945;48.816;11.506;2022-11-09T04:33:35;8.30;99.90
15690;DHT22;7945;48.816;11.506;2022-11-09T04:36:02;8.30;99.90
15690;DHT22;7945;48.816;11.506;2022-11-09T04:38:31;8.40;99.90
15690;DHT22;7945;48.816;11.506;2022-11-09T04:41:01;8.40;99.90
15690;DHT22;7945;48.816;11.506;2022-11-09T04:43:28;8.40;99.90
15690;DHT22;7945;48.816;11.506;2022-11-09T04:45:58;8.40;99.90
15690;DHT22;7945;48.816;11.506;2022-11-09T04:48:25;8.50;99.90
15690;DHT22;7945;48.816;11.506;2022-11-09T04:50:52;8.50;99.90
15690;DHT22;7945;48.816;11.506;2022-11-09T04:53:23;8.50;99.90
15690;DHT22;7945;48.816;11.506;2022-11-09T04:55:52;8.60;99.90
15690;DHT22;7945;48.816;11.506;2022-11-09T04:58:18;8.70;99.90
15690;DHT22;7945;48.816;11.506;2022-11-09T05:00:45;8.70;99.90
15690;DHT22;7945;48.816;11.506;2022-11-09T05:03:12;8.60;99.90
15690;DHT22;7945;48.816;11.506;2022-11-09T05:05:39;8.60;99.90
15690;DHT22;7945;48.816;11.506;2022-11-09T05:08:07;8.50;99.90
15690;DHT22;7945;48.816;11.506;2022-11-09T05:10:34;8.50;99.90
15690;DHT22;7945;48.816;11.506;2022-11-09T05:13:04;8.50;99.90
15690;DHT22;7945;48.816;11.506;2022-11-09T05:15:32;8.40;99.90
15690;DHT22;7945;48.816;11.506;2022-11-09T05:17:59;8.40;99.90
15690;DHT22;7945;48.816;11.506;2022-11-09T05:20:27;8.40;99.90
15690;DHT22;7945;48.816;11.506;2022-11-09T05:22:55;8.40;99.90
15690;DHT22;7945;48.816;11.506;2022-11-09T05:25:40;8.50;99.90
15690;DHT22;7945;48.816;11.506;2022-11-09T05:28:08;8.50;99.90
15690;DHT22;7945;48.816;11.506;2022-11-09T05:30:35;8.50;99.90
15690;DHT22;7945;48.816;11.506;2022-11-09T05:33:01;8.60;99.90
15690;DHT22;7945;48.816;11.506;2022-11-09T05:35:28;8.60;99.90
15690;DHT22;7945;48.816;11.506;2022-11-09T05:37:55;8.70;99.90
15690;DHT22;7945;48.816;11.506;2022-11-09T05:40:22;8.70;99.90
15690;DHT22;7945;48.816;11.506;2022-11-09T05:42:48;8.70;99.90
15690;DHT22;7945;48.816;11.506;2022-11-09T05:45:17;8.70;99.90
15690;DHT22;7945;48.816;11.506;2022-11-09T05:47:44;8.70;99.90
15690;DHT22;7945;48.816;11.506;2022-11-09T05:50:13;8.70;99.90
15690;DHT22;7945;48.816;11.506;2022-11-09T05:52:40;8.80;99.90
15690;DHT22;7945;48.816;11.506;2022-11-09T05:55:07;8.80;99.90
15690;DHT22;7945;48.816;11.506;2022-11-09T05:57:34;8.80;99.90
15690;DHT22;7945;48.816;11.506;2022-11-09T06:00:02;8.80;99.90
15690;DHT22;7945;48.816;11.506;2022-11-09T06:02:31;8.80;99.90
15690;DHT22;7945;48.816;11.506;2022-11-09T06:04:58;8.80;99.90
15690;DHT22;7945;48.816;11.506;2022-11-09T06:07:24;8.90;99.90
15690;DHT22;7945;48.816;11.506;2022-11-09T06:09:51;8.90;99.90
15690;DHT22;7945;48.816;11.506;2022-11-09T06:14:49;8.90;99.90
15690;DHT22;7945;48.816;11.506;2022-11-09T06:17:16;9.00;99.90
15690;DHT22;7945;48.816;11.506;2022-11-09T06:19:43;9.10;99.90
15690;DHT22;7945;48.816;11.506;2022-11-09T06:22:10;9.10;99.90
15690;DHT22;7945;48.816;11.506;2022-11-09T06:24:36;9.10;99.90
15690;DHT22;7945;48.816;11.506;2022-11-09T06:27:03;9.00;99.90
15690;DHT22;7945;48.816;11.506;2022-11-09T06:29:30;9.00;99.90
15690;DHT22;7945;48.816;11.506;2022-11-09T06:31:58;9.00;99.90
15690;DHT22;7945;48.816;11.506;2022-11-09T06:34:25;9.00;99.90
15690;DHT22;7945;48.816;11.506;2022-11-09T06:36:52;9.00;99.90
15690;DHT22;7945;48.816;11.506;2022-11-09T06:39:19;9.00;99.90
15690;DHT22;7945;48.816;11.506;2022-11-09T06:41:46;9.00;99.90
15690;DHT22;7945;48.816;11.506;2022-11-09T06:44:13;8.90;99.90
15690;DHT22;7945;48.816;11.506;2022-11-09T06:46:40;8.90;99.90
15690;DHT22;7945;48.816;11.506;2022-11-09T06:49:08;8.80;99.90
15690;DHT22;7945;48.816;11.506;2022-11-09T06:51:35;8.80;99.90
15690;DHT22;7945;48.816;11.506;2022-11-09T06:54:02;8.70;99.90
15690;DHT22;7945;48.816;11.506;2022-11-09T06:56:29;8.80;99.90
15690;DHT22;7945;48.816;11.506;2022-11-09T06:58:56;8.80;99.90
15690;DHT22;7945;48.816;11.506;2022-11-09T07:01:26;8.80;99.90
15690;DHT22;7945;48.816;11.506;2022-11-09T07:03:53;8.90;99.90
15690;DHT22;7945;48.816;11.506;2022-11-09T07:06:22;8.90;99.90
15690;DHT22;7945;48.816;11.506;2022-11-09T07:08:48;9.00;99.90
15690;DHT22;7945;48.816;11.506;2022-11-09T07:11:15;9.00;99.90
15690;DHT22;7945;48.816;11.506;2022-11-09T07:13:44;9.00;99.90
15690;DHT22;7945;48.816;11.506;2022-11-09T07:16:10;9.10;99.90
15690;DHT22;7945;48.816;11.506;2022-11-09T07:18:41;9.10;99.90
15690;DHT22;7945;48.816;11.506;2022-11-09T07:21:08;9.20;99.90
15690;DHT22;7945;48.816;11.506;2022-11-09T07:23:36;9.20;99.90
15690;DHT22;7945;48.816;11.506;2022-11-09T07:26:03;9.20;99.90
15690;DHT22;7945;48.816;11.506;2022-11-09T07:28:30;9.20;99.90
15690;DHT22;7945;48.816;11.506;2022-11-09T07:30:57;9.20;99.90
15690;DHT22;7945;48.816;11.506;2022-11-09T07:33:24;9.20;99.90
15690;DHT22;7945;48.816;11.506;2022-11-09T07:35:51;9.20;99.90
15690;DHT22;7945;48.816;11.506;2022-11-09T07:38:18;9.20;99.90
15690;DHT22;7945;48.816;11.506;2022-11-09T07:40:46;9.20;99.90
15690;DHT22;7945;48.816;11.506;2022-11-09T07:43:13;9.30;99.90
15690;DHT22;7945;48.816;11.506;2022-11-09T07:45:40;9.20;99.90
15690;DHT22;7945;48.816;11.506;2022-11-09T07:48:09;9.30;99.90
15690;DHT22;7945;48.816;11.506;2022-11-09T07:50:38;9.30;99.90
15690;DHT22;7945;48.816;11.506;2022-11-09T07:53:05;9.40;99.90
15690;DHT22;7945;48.816;11.506;2022-11-09T07:55:33;9.40;99.90
15690;DHT22;7945;48.816;11.506;2022-11-09T07:58:04;9.40;99.90
15690;DHT22;7945;48.816;11.506;2022-11-09T08:00:32;9.40;99.90
15690;DHT22;7945;48.816;11.506;2022-11-09T08:02:59;9.40;99.90
15690;DHT22;7945;48.816;11.506;2022-11-09T08:05:26;9.40;99.90
15690;DHT22;7945;48.816;11.506;2022-11-09T08:07:54;9.40;99.90
15690;DHT22;7945;48.816;11.506;2022-11-09T08:10:22;9.50;99.90
15690;DHT22;7945;48.816;11.506;2022-11-09T08:12:53;9.50;99.90
15690;DHT22;7945;48.816;11.506;2022-11-09T08:15:21;9.50;99.90
15690;DHT22;7945;48.816;11.506;2022-11-09T08:17:48;9.50;99.90
15690;DHT22;7945;48.816;11.506;2022-11-09T08:20:15;9.50;99.90
15690;DHT22;7945;48.816;11.506;2022-11-09T08:22:43;9.40;99.90
15690;DHT22;7945;48.816;11.506;2022-11-09T08:25:10;9.40;99.90
15690;DHT22;7945;48.816;11.506;2022-11-09T08:27:38;9.30;99.90
15690;DHT22;7945;48.816;11.506;2022-11-09T08:30:07;9.40;99.90
15690;DHT22;7945;48.816;11.506;2022-11-09T08:32:37;9.40;99.90
15690;DHT22;7945;48.816;11.506;2022-11-09T08:35:05;9.40;99.90
15690;DHT22;7945;48.816;11.506;2022-11-09T08:37:33;9.40;99.90
15690;DHT22;7945;48.816;11.506;2022-11-09T08:40:00;9.40;99.90
15690;DHT22;7945;48.816;11.506;2022-11-09T08:42:26;9.40;99.90
15690;DHT22;7945;48.816;11.506;2022-11-09T08:44:53;9.40;99.90
15690;DHT22;7945;48.816;11.506;2022-11-09T08:47:20;9.40;99.90
15690;DHT22;7945;48.816;11.506;2022-11-09T08:49:48;9.40;99.90
15690;DHT22;7945;48.816;11.506;2022-11-09T08:52:15;9.40;99.90
15690;DHT22;7945;48.816;11.506;2022-11-09T08:54:42;9.40;99.90
15690;DHT22;7945;48.816;11.506;2022-11-09T08:57:09;9.40;99.90
15690;DHT22;7945;48.816;11.506;2022-11-09T08:59:36;9.50;99.90
15690;DHT22;7945;48.816;11.506;2022-11-09T09:02:03;9.50;99.90
15690;DHT22;7945;48.816;11.506;2022-11-09T09:04:30;9.50;99.90
15690;DHT22;7945;48.816;11.506;2022-11-09T09:06:58;9.50;99.90
15690;DHT22;7945;48.816;11.506;2022-11-09T09:09:25;9.60;99.90
15690;DHT22;7945;48.816;11.506;2022-11-09T09:11:52;9.60;99.90
15690;DHT22;7945;48.816;11.506;2022-11-09T09:14:19;9.70;99.90
15690;DHT22;7945;48.816;11.506;2022-11-09T09:16:46;9.80;99.90
15690;DHT22;7945;48.816;11.506;2022-11-09T09:19:13;9.80;99.90
15690;DHT22;7945;48.816;11.506;2022-11-09T09:21:39;9.90;99.90
15690;DHT22;7945;48.816;11.506;2022-11-09T09:24:08;10.00;99.90
15690;DHT22;7945;48.816;11.506;2022-11-09T09:26:35;10.00;99.90
15690;DHT22;7945;48.816;11.506;2022-11-09T09:29:01;10.10;99.90
15690;DHT22;7945;48.816;11.506;2022-11-09T09:31:28;10.20;99.90
15690;DHT22;7945;48.816;11.506;2022-11-09T09:33:55;10.30;99.90
15690;DHT22;7945;48.816;11.506;2022-11-09T09:36:23;10.40;99.90
15690;DHT22;7945;48.816;11.506;2022-11-09T09:38:50;10.40;99.90
15690;DHT22;7945;48.816;11.506;2022-11-09T09:41:21;10.50;99.90
15690;DHT22;7945;48.816;11.506;2022-11-09T09:43:53;10.50;99.90
15690;DHT22;7945;48.816;11.506;2022-11-09T09:46:24;10.60;99.90
15690;DHT22;7945;48.816;11.506;2022-11-09T09:48:54;10.60;99.90
15690;DHT22;7945;48.816;11.506;2022-11-09T09:51:29;10.70;99.90
15690;DHT22;7945;48.816;11.506;2022-11-09T09:54:02;10.80;99.90
15690;DHT22;7945;48.816;11.506;2022-11-09T09:56:33;10.90;99.90
15690;DHT22;7945;48.816;11.506;2022-11-09T09:59:05;10.90;99.90
15690;DHT22;7945;48.816;11.506;2022-11-09T10:01:37;10.90;99.90
15690;DHT22;7945;48.816;11.506;2022-11-09T10:04:13;10.90;99.90
15690;DHT22;7945;48.816;11.506;2022-11-09T10:06:54;10.90;99.90
15690;DHT22;7945;48.816;11.506;2022-11-09T10:09:31;10.90;99.90
15690;DHT22;7945;48.816;11.506;2022-11-09T10:12:07;10.90;99.90
15690;DHT22;7945;48.816;11.506;2022-11-09T10:14:55;11.00;99.90
15690;DHT22;7945;48.816;11.506;2022-11-09T10:17:32;11.00;99.90
15690;DHT22;7945;48.816;11.506;2022-11-09T10:20:10;11.00;99.90
15690;DHT22;7945;48.816;11.506;2022-11-09T10:22:45;11.00;99.90
15690;DHT22;7945;48.816;11.506;2022-11-09T10:25:18;11.10;99.90
15690;DHT22;7945;48.816;11.506;2022-11-09T10:27:51;11.10;99.90
15690;DHT22;7945;48.816;11.506;2022-11-09T10:30:22;11.20;99.90
15690;DHT22;7945;48.816;11.506;2022-11-09T10:32:51;11.20;99.90
15690;DHT22;7945;48.816;11.506;2022-11-09T10:35:21;11.30;99.90
15690;DHT22;7945;48.816;11.506;2022-11-09T10:37:51;11.30;99.90
15690;DHT22;7945;48.816;11.506;2022-11-09T10:40:22;11.30;99.90
15690;DHT22;7945;48.816;11.506;2022-11-09T10:42:53;11.40;99.90
15690;DHT22;7945;48.816;11.506;2022-11-09T10:45:28;11.50;99.90
15690;DHT22;7945;48.816;11.506;2022-11-09T10:47:55;11.50;99.90
15690;DHT22;7945;48.816;11.506;2022-11-09T10:50:27;11.60;99.90
15690;DHT22;7945;48.816;11.506;2022-11-09T10:53:08;11.70;99.90
15690;DHT22;7945;48.816;11.506;2022-11-09T10:55:35;11.80;99.90
15690;DHT22;7945;48.816;11.506;2022-11-09T10:58:18;11.80;99.90
15690;DHT22;7945;48.816;11.506;2022-11-09T11:00:57;11.90;99.90
15690;DHT22;7945;48.816;11.506;2022-11-09T11:03:25;12.00;99.90
15690;DHT22;7945;48.816;11.506;2022-11-09T11:05:56;12.10;99.90
15690;DHT22;7945;48.816;11.506;2022-11-09T11:08:27;12.20;99.90
15690;DHT22;7945;48.816;11.506;2022-11-09T11:11:25;12.30;99.90
15690;DHT22;7945;48.816;11.506;2022-11-09T11:14:14;12.40;99.90
15690;DHT22;7945;48.816;11.506;2022-11-09T11:16:43;12.40;99.90
15690;DHT22;7945;48.816;11.506;2022-11-09T11:19:26;12.50;99.90
15690;DHT22;7945;48.816;11.506;2022-11-09T11:22:14;12.50;99.90
15690;DHT22;7945;48.816;11.506;2022-11-09T11:24:53;12.50;99.90
15690;DHT22;7945;48.816;11.506;2022-11-09T11:27:24;12.60;99.90
15690;DHT22;7945;48.816;11.506;2022-11-09T11:30:02;12.60;99.90
15690;DHT22;7945;48.816;11.506;2022-11-09T11:32:29;12.60;99.90
15690;DHT22;7945;48.816;11.506;2022-11-09T11:34:56;12.60;99.90
15690;DHT22;7945;48.816;11.506;2022-11-09T11:37:33;12.60;99.90
15690;DHT22;7945;48.816;11.506;2022-11-09T11:40:07;12.70;99.90
15690;DHT22;7945;48.816;11.506;2022-11-09T11:42:52;12.70;99.90
15690;DHT22;7945;48.816;11.506;2022-11-09T11:45:27;12.80;99.90
15690;DHT22;7945;48.816;11.506;2022-11-09T11:48:11;12.90;99.90
15690;DHT22;7945;48.816;11.506;2022-11-09T11:50:45;13.00;99.90
15690;DHT22;7945;48.816;11.506;2022-11-09T11:53:30;13.10;99.90
15690;DHT22;7945;48.816;11.506;2022-11-09T11:56:16;13.20;99.90
15690;DHT22;7945;48.816;11.506;2022-11-09T11:58:56;13.20;99.90
15690;DHT22;7945;48.816;11.506;2022-11-09T12:01:38;13.20;99.90
15690;DHT22;7945;48.816;11.506;2022-11-09T12:04:19;13.20;99.90
15690;DHT22;7945;48.816;11.506;2022-11-09T12:07:01;13.20;99.90
15690;DHT22;7945;48.816;11.506;2022-11-09T12:09:38;13.20;99.90
15690;DHT22;7945;48.816;11.506;2022-11-09T12:12:20;13.20;99.90
15690;DHT22;7945;48.816;11.506;2022-11-09T12:14:58;13.20;99.90
15690;DHT22;7945;48.816;11.506;2022-11-09T12:17:39;13.20;99.90
15690;DHT22;7945;48.816;11.506;2022-11-09T12:20:21;13.30;99.90
15690;DHT22;7945;48.816;11.506;2022-11-09T12:23:04;13.30;99.90
15690;DHT22;7945;48.816;11.506;2022-11-09T12:25:35;13.30;99.90
15690;DHT22;7945;48.816;11.506;2022-11-09T12:28:20;13.40;99.90
15690;DHT22;7945;48.816;11.506;2022-11-09T12:30:57;13.40;99.90
15690;DHT22;7945;48.816;11.506;2022-11-09T12:33:33;13.50;99.90
15690;DHT22;7945;48.816;11.506;2022-11-09T12:36:05;13.50;99.90
15690;DHT22;7945;48.816;11.506;2022-11-09T12:38:36;13.50;99.90
15690;DHT22;7945;48.816;11.506;2022-11-09T12:41:09;13.60;99.90
15690;DHT22;7945;48.816;11.506;2022-11-09T12:43:46;13.60;99.90
15690;DHT22;7945;48.816;11.506;2022-11-09T12:46:15;13.60;99.90
15690;DHT22;7945;48.816;11.506;2022-11-09T12:48:45;13.60;99.90
15690;DHT22;7945;48.816;11.506;2022-11-09T12:51:14;13.60;99.90
15690;DHT22;7945;48.816;11.506;2022-11-09T12:53:42;13.70;99.90
15690;DHT22;7945;48.816;11.506;2022-11-09T12:56:13;13.70;99.90
15690;DHT22;7945;48.816;11.506;2022-11-09T12:58:42;13.70;99.90
15690;DHT22;7945;48.816;11.506;2022-11-09T13:01:11;13.80;99.90
15690;DHT22;7945;48.816;11.506;2022-11-09T13:03:39;13.80;99.90
15690;DHT22;7945;48.816;11.506;2022-11-09T13:06:21;13.90;99.90
15690;DHT22;7945;48.816;11.506;2022-11-09T13:08:59;13.90;99.90
15690;DHT22;7945;48.816;11.506;2022-11-09T13:11:38;14.00;99.90
15690;DHT22;7945;48.816;11.506;2022-11-09T13:14:36;14.00;99.90
15690;DHT22;7945;48.816;11.506;2022-11-09T13:23:33;14.10;99.90
15690;DHT22;7945;48.816;11.506;2022-11-09T13:26:01;14.10;99.90
15690;DHT22;7945;48.816;11.506;2022-11-09T13:32:04;14.20;99.90
15690;DHT22;7945;48.816;11.506;2022-11-09T13:34:42;14.20;99.90
15690;DHT22;7945;48.816;11.506;2022-11-09T13:37:34;14.30;99.90
15690;DHT22;7945;48.816;11.506;2022-11-09T13:40:39;14.30;99.90
15690;DHT22;7945;48.816;11.506;2022-11-09T13:43:15;14.40;99.90
15690;DHT22;7945;48.816;11.506;2022-11-09T13:45:44;14.40;99.90
15690;DHT22;7945;48.816;11.506;2022-11-09T13:48:40;14.40;99.90
15690;DHT22;7945;48.816;11.506;2022-11-09T13:51:09;14.40;99.90
15690;DHT22;7945;48.816;11.506;2022-11-09T13:53:56;14.40;99.90
15690;DHT22;7945;48.816;11.506;2022-11-09T13:56:31;14.40;99.90
15690;DHT22;7945;48.816;11.506;2022-11-09T13:59:05;14.40;99.90
15690;DHT22;7945;48.816;11.506;2022-11-09T14:01:35;14.40;99.90
15690;DHT22;7945;48.816;11.506;2022-11-09T14:04:02;14.40;99.90
15690;DHT22;7945;48.816;11.506;2022-11-09T14:06:29;14.40;99.90
15690;DHT22;7945;48.816;11.506;2022-11-09T14:08:57;14.40;99.90
15690;DHT22;7945;48.816;11.506;2022-11-09T14:11:44;14.40;99.90
15690;DHT22;7945;48.816;11.506;2022-11-09T14:14:40;14.40;99.90
15690;DHT22;7945;48.816;11.506;2022-11-09T14:17:14;14.40;99.90
15690;DHT22;7945;48.816;11.506;2022-11-09T14:19:52;14.40;99.90
15690;DHT22;7945;48.816;11.506;2022-11-09T14:22:22;14.40;99.90
15690;DHT22;7945;48.816;11.506;2022-11-09T14:24:49;14.40;99.90
15690;DHT22;7945;48.816;11.506;2022-11-09T14:27:19;14.40;99.90
15690;DHT22;7945;48.816;11.506;2022-11-09T14:29:51;14.40;99.90
15690;DHT22;7945;48.816;11.506;2022-11-09T14:32:25;14.40;99.90
15690;DHT22;7945;48.816;11.506;2022-11-09T14:34:52;14.40;99.90
15690;DHT22;7945;48.816;11.506;2022-11-09T14:37:20;14.40;99.90
15690;DHT22;7945;48.816;11.506;2022-11-09T14:39:48;14.40;99.90
15690;DHT22;7945;48.816;11.506;2022-11-09T14:42:18;14.40;99.90
15690;DHT22;7945;48.816;11.506;2022-11-09T14:44:46;14.40;99.90
15690;DHT22;7945;48.816;11.506;2022-11-09T14:47:15;14.40;99.90
15690;DHT22;7945;48.816;11.506;2022-11-09T14:49:43;14.30;99.90
15690;DHT22;7945;48.816;11.506;2022-11-09T14:52:13;14.30;99.90
15690;DHT22;7945;48.816;11.506;2022-11-09T14:54:42;14.30;99.90
15690;DHT22;7945;48.816;11.506;2022-11-09T14:57:11;14.30;99.90
15690;DHT22;7945;48.816;11.506;2022-11-09T14:59:41;14.20;99.90
15690;DHT22;7945;48.816;11.506;2022-11-09T15:02:11;14.20;99.90
15690;DHT22;7945;48.816;11.506;2022-11-09T15:04:55;14.20;99.90
15690;DHT22;7945;48.816;11.506;2022-11-09T15:07:25;14.10;99.90
15690;DHT22;7945;48.816;11.506;2022-11-09T15:09:55;14.10;99.90
15690;DHT22;7945;48.816;11.506;2022-11-09T15:12:23;14.00;99.90
15690;DHT22;7945;48.816;11.506;2022-11-09T15:14:54;14.00;99.90
15690;DHT22;7945;48.816;11.506;2022-11-09T15:17:23;14.00;99.90
15690;DHT22;7945;48.816;11.506;2022-11-09T15:19:52;13.90;99.90
15690;DHT22;7945;48.816;11.506;2022-11-09T15:22:46;13.90;99.90
15690;DHT22;7945;48.816;11.506;2022-11-09T15:25:20;13.90;99.90
15690;DHT22;7945;48.816;11.506;2022-11-09T15:27:57;13.80;99.90
15690;DHT22;7945;48.816;11.506;2022-11-09T15:30:29;13.80;99.90
15690;DHT22;7945;48.816;11.506;2022-11-09T15:32:56;13.80;99.90
15690;DHT22;7945;48.816;11.506;2022-11-09T15:35:24;13.70;99.90
15690;DHT22;7945;48.816;11.506;2022-11-09T15:37:51;13.70;99.90
15690;DHT22;7945;48.816;11.506;2022-11-09T15:40:23;13.70;99.90
15690;DHT22;7945;48.816;11.506;2022-11-09T15:42:50;13.70;99.90
15690;DHT22;7945;48.816;11.506;2022-11-09T15:45:19;13.70;99.90
15690;DHT22;7945;48.816;11.506;2022-11-09T15:47:52;13.60;99.90
15690;DHT22;7945;48.816;11.506;2022-11-09T15:50:23;13.60;99.90
15690;DHT22;7945;48.816;11.506;2022-11-09T15:52:50;13.60;99.90
15690;DHT22;7945;48.816;11.506;2022-11-09T15:55:19;13.60;99.90
15690;DHT22;7945;48.816;11.506;2022-11-09T15:57:47;13.60;99.90
15690;DHT22;7945;48.816;11.506;2022-11-09T16:00:16;13.60;99.90
15690;DHT22;7945;48.816;11.506;2022-11-09T16:02:43;13.60;99.90
15690;DHT22;7945;48.816;11.506;2022-11-09T16:05:12;13.60;99.90
15690;DHT22;7945;48.816;11.506;2022-11-09T16:07:46;13.50;99.90
15690;DHT22;7945;48.816;11.506;2022-11-09T16:10:13;13.50;99.90